createdAt,value
2022-11-01T00:04:10.993Z,55.06
2022-11-01T00:09:12.663Z,55.10
2022-11-01T00:14:16.094Z,54.64
2022-11-01T00:19:25.462Z,54.44
2022-11-01T00:24:27.047Z,54.56
2022-11-01T00:29:28.744Z,54.66
2022-11-01T00:34:30.341Z,54.48
2022-11-01T00:39:38.426Z,54.76
2022-11-01T00:44:44.764Z,54.69
2022-11-01T00:49:48.615Z,54.55
2022-11-01T00:54:52.583Z,54.70
2022-11-01T01:00:00.970Z,54.96
2022-11-01T01:05:04.124Z,54.88
2022-11-01T01:10:06.899Z,55.09
2022-11-01T01:15:13.662Z,55.22
2022-11-01T01:20:15.319Z,55.14
2022-11-01T01:25:17.546Z,54.98
2022-11-01T01:30:19.111Z,54.63
2022-11-01T01:35:26.238Z,54.24
2022-11-01T01:40:27.901Z,54.39
2022-11-01T01:45:41.025Z,54.38
2022-11-01T01:50:52.590Z,54.97
2022-11-01T01:56:06.273Z,55.34
2022-11-01T02:01:08.095Z,55.51
2022-11-01T02:06:13.200Z,55.85
2022-11-01T02:11:23.786Z,56.12
2022-11-01T02:16:56.608Z,56.03
2022-11-01T02:22:06.901Z,56.18
2022-11-01T02:27:25.574Z,56.38
2022-11-01T02:32:57.967Z,55.86
2022-11-01T02:38:07.561Z,55.43
2022-11-01T02:43:16.744Z,55.20
2022-11-01T02:48:23.575Z,55.12
2022-11-01T02:53:29.339Z,54.97
2022-11-01T02:58:33.939Z,54.85
2022-11-01T03:03:36.153Z,55.03
2022-11-01T03:08:43.672Z,55.20
2022-11-01T03:13:53.691Z,55.22
2022-11-01T03:19:04.971Z,55.27
2022-11-01T03:24:23.451Z,55.53
2022-11-01T03:29:30.833Z,55.80
2022-11-01T03:34:36.813Z,55.87
2022-11-01T03:39:47.354Z,56.06
2022-11-01T03:44:55.153Z,56.01
2022-11-01T03:50:28.311Z,55.93
2022-11-01T03:55:30.859Z,56.17
2022-11-01T04:00:35.171Z,56.29
2022-11-01T04:05:40.861Z,56.32
2022-11-01T04:10:44.791Z,56.41
2022-11-01T04:16:06.525Z,56.55
2022-11-01T04:21:16.578Z,56.33
2022-11-01T04:26:22.412Z,56.05
2022-11-01T04:31:30.448Z,56.04
2022-11-01T04:36:37.237Z,56.01
2022-11-01T04:41:41.265Z,55.52
2022-11-01T04:46:42.828Z,55.89
2022-11-01T04:51:44.412Z,55.62
2022-11-01T04:56:51.059Z,55.58
2022-11-01T05:01:52.770Z,55.76
2022-11-01T05:06:54.445Z,55.31
2022-11-01T05:11:56.011Z,55.43
2022-11-01T05:17:00.164Z,55.71
2022-11-01T05:22:04.789Z,55.49
2022-11-01T05:27:08.816Z,55.50
2022-11-01T05:32:12.846Z,55.60
2022-11-01T05:37:15.791Z,55.48
2022-11-01T05:42:17.341Z,55.63
2022-11-01T05:47:18.918Z,55.45
2022-11-01T05:52:22.958Z,55.34
2022-11-01T05:57:24.502Z,55.72
2022-11-01T06:02:27.431Z,55.99
2022-11-01T06:07:29.133Z,55.78
2022-11-01T06:12:30.609Z,55.52
2022-11-01T06:17:32.125Z,55.42
2022-11-01T06:22:36.314Z,55.33
2022-11-01T06:27:37.901Z,55.73
2022-11-01T06:32:41.516Z,55.74
2022-11-01T06:37:43.027Z,55.75
2022-11-01T06:42:46.320Z,55.53
2022-11-01T06:47:50.789Z,55.49
2022-11-01T06:52:56.202Z,55.67
2022-11-01T06:58:05.468Z,55.66
2022-11-01T07:03:11.584Z,55.78
2022-11-01T07:08:14.376Z,55.97
2022-11-01T07:13:18.310Z,56.25
2022-11-01T07:18:19.935Z,56.18
2022-11-01T07:23:24.285Z,56.52
2022-11-01T07:28:27.421Z,56.46
2022-11-01T07:33:31.340Z,56.44
2022-11-01T07:38:35.596Z,56.64
2022-11-01T07:43:39.545Z,56.62
2022-11-01T07:48:41.099Z,56.83
2022-11-01T07:53:45.617Z,56.56
2022-11-01T07:58:47.388Z,56.58
2022-11-01T08:03:52.054Z,56.64
2022-11-01T08:08:56.684Z,56.86
2022-11-01T08:14:04.336Z,56.85
2022-11-01T08:19:07.865Z,56.77
2022-11-01T08:24:11.926Z,57.02
2022-11-01T08:29:15.764Z,56.84
2022-11-01T08:34:22.011Z,56.88
2022-11-01T08:39:27.958Z,57.00
2022-11-01T08:44:37.210Z,57.39
2022-11-01T08:49:41.128Z,57.09
2022-11-01T08:54:47.526Z,57.29
2022-11-01T09:00:01.507Z,57.32
2022-11-01T09:05:05.302Z,57.55
2022-11-01T09:10:08.933Z,57.60
2022-11-01T09:15:14.984Z,57.73
2022-11-01T09:20:16.499Z,58.20
2022-11-01T09:25:20.337Z,58.22
2022-11-01T09:30:21.931Z,58.13
2022-11-01T09:35:23.727Z,58.04
2022-11-01T09:40:43.986Z,58.05
2022-11-01T09:45:45.732Z,58.11
2022-11-01T09:50:49.538Z,58.48
2022-11-01T09:55:56.984Z,58.06
2022-11-01T10:01:41.341Z,58.39
2022-11-01T10:06:51.851Z,58.44
2022-11-01T10:12:02.431Z,58.60
2022-11-01T10:17:27.585Z,58.54
2022-11-01T10:22:34.400Z,58.71
2022-11-01T10:27:53.490Z,58.68
2022-11-01T10:33:37.358Z,58.79
2022-11-01T10:39:36.915Z,58.70
2022-11-01T10:44:36.175Z,58.39
2022-11-01T10:50:05.911Z,58.07
2022-11-01T10:55:11.337Z,57.64
2022-11-01T11:00:20.961Z,57.58
2022-11-01T11:05:25.865Z,57.49
2022-11-01T11:10:29.007Z,57.41
2022-11-01T11:15:52.701Z,57.25
2022-11-01T11:21:00.252Z,57.25
2022-11-01T11:26:11.704Z,57.11
2022-11-01T11:31:22.573Z,56.89
2022-11-01T11:36:36.837Z,57.00
2022-11-01T11:41:39.279Z,56.81
2022-11-01T11:46:56.802Z,56.73
2022-11-01T11:51:59.104Z,56.67
2022-11-01T11:57:30.218Z,56.86
2022-11-01T12:02:39.443Z,56.77
2022-11-01T12:07:51.668Z,56.66
2022-11-01T12:12:55.520Z,56.53
2022-11-01T12:18:10.286Z,56.70
2022-11-01T12:23:35.039Z,56.54
2022-11-01T12:28:44.513Z,56.56
2022-11-01T12:33:54.344Z,56.44
2022-11-01T12:39:03.416Z,56.49
2022-11-01T12:44:32.342Z,56.37
2022-11-01T12:50:01.684Z,56.34
2022-11-01T12:55:20.769Z,56.45
2022-11-01T13:00:26.827Z,56.33
2022-11-01T13:05:53.908Z,56.10
2022-11-01T13:11:04.498Z,56.05
2022-11-01T13:16:25.843Z,55.83
2022-11-01T13:21:38.082Z,55.77
2022-11-01T13:26:54.723Z,55.76
2022-11-01T13:32:06.108Z,55.55
2022-11-01T13:37:23.659Z,55.57
2022-11-01T13:42:34.813Z,55.42
2022-11-01T13:48:19.716Z,55.10
2022-11-01T13:53:39.089Z,55.30
2022-11-01T13:58:45.371Z,55.34
2022-11-01T14:03:49.840Z,55.25
2022-11-01T14:09:32.229Z,55.02
2022-11-01T14:14:43.575Z,54.82
2022-11-01T14:20:10.734Z,54.32
2022-11-01T14:25:12.589Z,54.01
2022-11-01T14:30:15.550Z,53.97
2022-11-01T14:35:37.311Z,53.96
2022-11-01T14:40:46.285Z,53.53
2022-11-01T14:45:54.045Z,53.39
2022-11-01T14:51:05.477Z,53.34
2022-11-01T14:56:21.424Z,53.12
2022-11-01T15:01:25.831Z,53.27
2022-11-01T15:06:33.042Z,53.32
2022-11-01T15:11:37.192Z,53.26
2022-11-01T15:16:44.903Z,53.58
2022-11-01T15:21:48.770Z,53.17
2022-11-01T15:26:54.971Z,53.65
2022-11-01T15:32:03.068Z,53.63
2022-11-01T15:37:20.682Z,53.92
2022-11-01T15:42:24.007Z,53.92
2022-11-01T15:47:30.455Z,54.12
2022-11-01T15:52:34.650Z,54.08
2022-11-01T15:57:38.776Z,54.16
2022-11-01T16:03:10.799Z,54.28
2022-11-01T16:08:32.617Z,54.56
2022-11-01T16:13:34.748Z,54.62
2022-11-01T16:18:40.319Z,54.66
2022-11-01T16:23:50.921Z,54.73
2022-11-01T16:28:55.180Z,54.69
2022-11-01T16:33:59.861Z,54.61
2022-11-01T16:39:01.467Z,54.85
2022-11-01T16:44:15.834Z,54.73
2022-11-01T16:49:26.664Z,54.56
2022-11-01T16:54:28.605Z,54.98
2022-11-01T16:59:44.292Z,54.73
2022-11-01T17:04:49.265Z,54.80
2022-11-01T17:09:50.805Z,55.19
2022-11-01T17:14:53.207Z,55.18
2022-11-01T17:19:59.920Z,55.41
2022-11-01T17:25:03.457Z,55.67
2022-11-01T17:30:06.261Z,55.58
2022-11-01T17:35:15.753Z,55.65
2022-11-01T17:40:22.487Z,55.64
2022-11-01T17:45:24.136Z,56.00
2022-11-01T17:50:25.629Z,56.10
2022-11-01T17:55:27.376Z,56.03
2022-11-01T18:00:29.097Z,56.12
2022-11-01T18:05:34.186Z,56.13
2022-11-01T18:10:49.604Z,56.08
2022-11-01T18:16:20.093Z,56.34
2022-11-01T18:21:33.034Z,56.32
2022-11-01T18:26:34.564Z,56.39
2022-11-01T18:31:44.696Z,56.41
2022-11-01T18:36:58.641Z,56.41
2022-11-01T18:42:06.796Z,56.62
2022-11-01T18:47:25.793Z,56.61
2022-11-01T18:52:33.180Z,56.52
2022-11-01T18:57:35.098Z,56.71
2022-11-01T19:02:40.015Z,56.67
2022-11-01T19:08:09.094Z,56.82
2022-11-01T19:13:12.825Z,56.90
2022-11-01T19:18:22.558Z,56.93
2022-11-01T19:23:40.137Z,57.24
2022-11-01T19:28:44.705Z,57.03
2022-11-01T19:33:55.316Z,56.96
2022-11-01T19:39:03.118Z,57.11
2022-11-01T19:44:18.196Z,57.19
2022-11-01T19:49:30.949Z,57.08
2022-11-01T19:54:36.101Z,57.21
2022-11-01T19:59:39.623Z,57.16
2022-11-01T20:04:45.763Z,57.26
2022-11-01T20:09:58.267Z,57.39
2022-11-01T20:15:00.314Z,57.34
2022-11-01T20:20:05.009Z,57.34
2022-11-01T20:25:09.797Z,57.52
2022-11-01T20:30:11.657Z,57.53
2022-11-01T20:35:15.757Z,57.81
2022-11-01T20:40:21.923Z,57.61
2022-11-01T20:45:27.568Z,57.80
2022-11-01T20:50:29.674Z,57.78
2022-11-01T20:55:31.664Z,57.93
2022-11-01T21:00:33.305Z,57.77
2022-11-01T21:05:37.186Z,57.64
2022-11-01T21:10:40.251Z,57.72
2022-11-01T21:15:47.988Z,57.49
2022-11-01T21:20:53.798Z,57.43
2022-11-01T21:26:01.455Z,57.61
2022-11-01T21:31:31.472Z,57.46
2022-11-01T21:36:35.351Z,57.43
2022-11-01T21:41:49.714Z,57.45
2022-11-01T21:47:11.807Z,57.69
2022-11-01T21:52:16.216Z,57.71
2022-11-01T21:57:19.947Z,57.57
2022-11-01T22:02:23.852Z,57.79
2022-11-01T22:07:27.720Z,57.64
2022-11-01T22:12:33.291Z,57.64
2022-11-01T22:17:35.080Z,57.74
2022-11-01T22:22:39.082Z,58.09
2022-11-01T22:27:40.886Z,57.80
2022-11-01T22:32:44.828Z,57.91
2022-11-01T22:37:48.058Z,57.87
2022-11-01T22:42:55.267Z,57.90
2022-11-01T22:48:00.035Z,58.06
2022-11-01T22:53:33.983Z,57.80
2022-11-01T22:58:37.876Z,57.87
2022-11-01T23:03:40.729Z,57.88
2022-11-01T23:08:49.591Z,57.75
2022-11-01T23:14:14.765Z,57.73
2022-11-01T23:19:18.599Z,57.70
2022-11-01T23:24:23.726Z,57.74
2022-11-01T23:29:25.315Z,57.67
2022-11-01T23:34:28.036Z,57.68
2022-11-01T23:39:36.306Z,57.80
2022-11-01T23:44:40.093Z,57.73
2022-11-01T23:49:43.142Z,57.83
2022-11-01T23:54:47.410Z,57.93
2022-11-01T23:59:52.909Z,57.83
